KVIH/VIH METAR and TAF weather

Enter ICAO airport designator
Station Type Date Time Source
KVIH METAR 2020/08/11 00:53 UTC NOAA

KVIH 110053Z AUTO 08009KT 10SM FEW012 FEW055 21/19 A3001 RMK AO2 LTG DSNT SE SLP150 T02110194


Station Type Date Time Source
KVIH Decoded METAR 2020/08/11 00:53 UTC NOAA

ROLLA/VICHY ROLLA NATIONAL, MO, United States (KVIH) 38-08N 91-46W 333M
Aug 10, 2020 - 08:53 PM EDT / 2020.08.11 0053 UTC
Wind: from the E (080 degrees) at 10 MPH (9 KT):0
Visibility: 10 mile(s):0
Sky conditions: mostly clear
Weather: Lightning observed
Temperature: 70.0 F (21.1 C)
Dew Point: 66.9 F (19.4 C)
Relative Humidity: 90%
Pressure (altimeter): 30.01 in. Hg (1016 hPa)
ob: KVIH 110053Z AUTO 08009KT 10SM FEW012 FEW055 21/19 A3001 RMK AO2 LTG DSNT SE SLP150 T02110194
cycle: 1

Station Type Date Time Source
KVIH TAF UTC NOAA

Error!

Example: see airport list